sensor_id;sensor_type;location;lat;lon;timestamp;pressure;altitude;pressure_sealevel;temperature;humidity
66668;BME280;57205;51.438;-2.006;2023-08-17T00:01:40;101272.84;;;16.86;100.00
66668;BME280;57205;51.438;-2.006;2023-08-17T00:04:05;101279.91;;;16.82;100.00
66668;BME280;57205;51.438;-2.006;2023-08-17T00:06:31;101278.88;;;16.78;100.00
66668;BME280;57205;51.438;-2.006;2023-08-17T00:08:56;101281.13;;;16.71;100.00
66668;BME280;57205;51.438;-2.006;2023-08-17T00:11:21;101279.34;;;16.62;100.00
66668;BME280;57205;51.438;-2.006;2023-08-17T00:13:47;101281.88;;;16.53;100.00
66668;BME280;57205;51.438;-2.006;2023-08-17T00:16:12;101283.34;;;16.40;100.00
66668;BME280;57205;51.438;-2.006;2023-08-17T00:18:38;101282.84;;;16.33;100.00
66668;BME280;57205;51.438;-2.006;2023-08-17T00:21:03;101284.25;;;16.31;100.00
66668;BME280;57205;51.438;-2.006;2023-08-17T00:23:29;101293.97;;;16.32;100.00
66668;BME280;57205;51.438;-2.006;2023-08-17T00:25:54;101289.59;;;16.36;100.00
66668;BME280;57205;51.438;-2.006;2023-08-17T00:28:20;101290.06;;;16.43;100.00
66668;BME280;57205;51.438;-2.006;2023-08-17T00:30:45;101289.25;;;16.47;100.00
66668;BME280;57205;51.438;-2.006;2023-08-17T00:33:12;101289.69;;;16.54;100.00
66668;BME280;57205;51.438;-2.006;2023-08-17T00:35:37;101288.84;;;16.59;100.00
66668;BME280;57205;51.438;-2.006;2023-08-17T00:38:03;101291.19;;;16.66;100.00
66668;BME280;57205;51.438;-2.006;2023-08-17T00:40:28;101299.81;;;16.68;100.00
66668;BME280;57205;51.438;-2.006;2023-08-17T00:42:54;101288.72;;;16.69;100.00
66668;BME280;57205;51.438;-2.006;2023-08-17T00:45:19;101289.59;;;16.65;100.00
66668;BME280;57205;51.438;-2.006;2023-08-17T00:47:45;101290.69;;;16.64;100.00
66668;BME280;57205;51.438;-2.006;2023-08-17T00:50:11;101292.56;;;16.63;100.00
66668;BME280;57205;51.438;-2.006;2023-08-17T00:52:37;101289.84;;;16.63;100.00
66668;BME280;57205;51.438;-2.006;2023-08-17T00:55:03;101300.97;;;16.62;100.00
66668;BME280;57205;51.438;-2.006;2023-08-17T00:57:31;101300.44;;;16.59;100.00
66668;BME280;57205;51.438;-2.006;2023-08-17T00:59:58;101291.56;;;16.59;100.00
66668;BME280;57205;51.438;-2.006;2023-08-17T01:02:23;101297.22;;;16.57;100.00
66668;BME280;57205;51.438;-2.006;2023-08-17T01:04:49;101296.69;;;16.55;100.00
66668;BME280;57205;51.438;-2.006;2023-08-17T01:07:15;101297.28;;;16.52;100.00
66668;BME280;57205;51.438;-2.006;2023-08-17T01:09:40;101297.56;;;16.51;100.00
66668;BME280;57205;51.438;-2.006;2023-08-17T01:12:33;101293.25;;;16.50;100.00
66668;BME280;57205;51.438;-2.006;2023-08-17T01:15:12;101291.38;;;16.45;100.00
66668;BME280;57205;51.438;-2.006;2023-08-17T01:17:43;101281.13;;;16.42;100.00
66668;BME280;57205;51.438;-2.006;2023-08-17T01:20:09;101289.53;;;16.41;100.00
66668;BME280;57205;51.438;-2.006;2023-08-17T01:22:40;101286.09;;;16.35;100.00
66668;BME280;57205;51.438;-2.006;2023-08-17T01:25:06;101285.56;;;16.33;100.00
66668;BME280;57205;51.438;-2.006;2023-08-17T01:27:43;101286.16;;;16.30;100.00
66668;BME280;57205;51.438;-2.006;2023-08-17T01:30:11;101283.50;;;16.25;100.00
66668;BME280;57205;51.438;-2.006;2023-08-17T01:32:49;101280.81;;;16.25;100.00
66668;BME280;57205;51.438;-2.006;2023-08-17T01:37:44;101277.06;;;16.21;100.00
66668;BME280;57205;51.438;-2.006;2023-08-17T01:40:12;101268.13;;;16.21;100.00
66668;BME280;57205;51.438;-2.006;2023-08-17T01:42:39;101277.13;;;16.16;100.00
66668;BME280;57205;51.438;-2.006;2023-08-17T01:45:05;101280.06;;;16.15;100.00
66668;BME280;57205;51.438;-2.006;2023-08-17T01:47:31;101278.78;;;16.12;100.00
66668;BME280;57205;51.438;-2.006;2023-08-17T01:49:57;101273.91;;;16.09;100.00
66668;BME280;57205;51.438;-2.006;2023-08-17T01:52:26;101276.38;;;16.06;100.00
66668;BME280;57205;51.438;-2.006;2023-08-17T01:54:53;101281.56;;;16.02;100.00
66668;BME280;57205;51.438;-2.006;2023-08-17T01:57:18;101293.44;;;16.01;100.00
66668;BME280;57205;51.438;-2.006;2023-08-17T01:59:44;101281.31;;;15.99;100.00
66668;BME280;57205;51.438;-2.006;2023-08-17T02:02:09;101282.97;;;15.95;100.00
66668;BME280;57205;51.438;-2.006;2023-08-17T02:04:36;101293.47;;;15.96;100.00
66668;BME280;57205;51.438;-2.006;2023-08-17T02:07:02;101296.47;;;15.95;100.00
66668;BME280;57205;51.438;-2.006;2023-08-17T02:09:28;101294.56;;;15.95;100.00
66668;BME280;57205;51.438;-2.006;2023-08-17T02:11:53;101300.56;;;15.92;100.00
66668;BME280;57205;51.438;-2.006;2023-08-17T02:14:19;101296.22;;;15.91;100.00
66668;BME280;57205;51.438;-2.006;2023-08-17T02:16:44;101295.69;;;15.89;100.00
66668;BME280;57205;51.438;-2.006;2023-08-17T02:19:09;101300.84;;;15.86;100.00
66668;BME280;57205;51.438;-2.006;2023-08-17T02:21:35;101300.03;;;15.85;100.00
66668;BME280;57205;51.438;-2.006;2023-08-17T02:24:00;101292.75;;;15.86;100.00
66668;BME280;57205;51.438;-2.006;2023-08-17T02:26:25;101301.97;;;15.85;100.00
66668;BME280;57205;51.438;-2.006;2023-08-17T02:28:52;101298.97;;;15.86;100.00
66668;BME280;57205;51.438;-2.006;2023-08-17T02:31:17;101297.63;;;15.84;100.00
66668;BME280;57205;51.438;-2.006;2023-08-17T02:33:43;101297.91;;;15.82;100.00
66668;BME280;57205;51.438;-2.006;2023-08-17T02:36:08;101304.38;;;15.81;100.00
66668;BME280;57205;51.438;-2.006;2023-08-17T02:38:34;101303.91;;;15.79;100.00
66668;BME280;57205;51.438;-2.006;2023-08-17T02:41:02;101307.66;;;15.78;100.00
66668;BME280;57205;51.438;-2.006;2023-08-17T02:43:27;101311.47;;;15.77;100.00
66668;BME280;57205;51.438;-2.006;2023-08-17T02:45:53;101305.81;;;15.74;100.00
66668;BME280;57205;51.438;-2.006;2023-08-17T02:48:18;101304.47;;;15.71;100.00
66668;BME280;57205;51.438;-2.006;2023-08-17T02:50:44;101306.69;;;15.64;100.00
66668;BME280;57205;51.438;-2.006;2023-08-17T02:53:09;101312.63;;;15.61;100.00
66668;BME280;57205;51.438;-2.006;2023-08-17T02:55:35;101314.56;;;15.55;100.00
66668;BME280;57205;51.438;-2.006;2023-08-17T02:58:01;101311.56;;;15.57;100.00
66668;BME280;57205;51.438;-2.006;2023-08-17T03:00:26;101310.78;;;15.56;100.00
66668;BME280;57205;51.438;-2.006;2023-08-17T03:02:51;101312.69;;;15.56;100.00
66668;BME280;57205;51.438;-2.006;2023-08-17T03:05:18;101312.16;;;15.54;100.00
66668;BME280;57205;51.438;-2.006;2023-08-17T03:07:43;101314.59;;;15.50;100.00
66668;BME280;57205;51.438;-2.006;2023-08-17T03:10:09;101315.19;;;15.47;100.00
66668;BME280;57205;51.438;-2.006;2023-08-17T03:12:34;101317.06;;;15.47;100.00
66668;BME280;57205;51.438;-2.006;2023-08-17T03:15:00;101312.47;;;15.47;100.00
66668;BME280;57205;51.438;-2.006;2023-08-17T03:17:25;101322.69;;;15.50;100.00
66668;BME280;57205;51.438;-2.006;2023-08-17T03:19:52;101317.53;;;15.54;100.00
66668;BME280;57205;51.438;-2.006;2023-08-17T03:22:17;101317.50;;;15.59;100.00
66668;BME280;57205;51.438;-2.006;2023-08-17T03:24:42;101315.88;;;15.63;100.00
66668;BME280;57205;51.438;-2.006;2023-08-17T03:27:08;101313.38;;;15.72;100.00
66668;BME280;57205;51.438;-2.006;2023-08-17T03:29:34;101314.41;;;15.76;100.00
66668;BME280;57205;51.438;-2.006;2023-08-17T03:31:59;101307.41;;;15.75;100.00
66668;BME280;57205;51.438;-2.006;2023-08-17T03:34:24;101307.91;;;15.82;100.00
66668;BME280;57205;51.438;-2.006;2023-08-17T03:36:50;101305.72;;;15.84;100.00
66668;BME280;57205;51.438;-2.006;2023-08-17T03:39:15;101307.59;;;15.88;100.00
66668;BME280;57205;51.438;-2.006;2023-08-17T03:41:41;101299.44;;;15.93;100.00
66668;BME280;57205;51.438;-2.006;2023-08-17T03:44:07;101301.03;;;15.99;100.00
66668;BME280;57205;51.438;-2.006;2023-08-17T03:46:32;101299.91;;;16.00;100.00
66668;BME280;57205;51.438;-2.006;2023-08-17T03:48:58;101309.34;;;16.03;100.00
66668;BME280;57205;51.438;-2.006;2023-08-17T03:51:24;101307.50;;;15.98;100.00
66668;BME280;57205;51.438;-2.006;2023-08-17T03:53:49;101301.03;;;15.99;100.00
66668;BME280;57205;51.438;-2.006;2023-08-17T03:56:15;101319.41;;;15.97;100.00
66668;BME280;57205;51.438;-2.006;2023-08-17T03:58:40;101307.03;;;15.91;100.00
66668;BME280;57205;51.438;-2.006;2023-08-17T04:01:06;101305.19;;;15.87;100.00
66668;BME280;57205;51.438;-2.006;2023-08-17T04:03:31;101303.59;;;15.81;100.00
66668;BME280;57205;51.438;-2.006;2023-08-17T04:05:57;101296.28;;;15.81;100.00
66668;BME280;57205;51.438;-2.006;2023-08-17T04:08:22;101299.53;;;15.83;100.00
66668;BME280;57205;51.438;-2.006;2023-08-17T04:10:48;101294.38;;;15.87;100.00
66668;BME280;57205;51.438;-2.006;2023-08-17T04:13:13;101294.38;;;15.87;100.00
66668;BME280;57205;51.438;-2.006;2023-08-17T04:15:38;101301.66;;;15.86;100.00
66668;BME280;57205;51.438;-2.006;2023-08-17T04:18:04;101302.19;;;15.88;100.00
66668;BME280;57205;51.438;-2.006;2023-08-17T04:20:30;101296.00;;;15.88;100.00
66668;BME280;57205;51.438;-2.006;2023-08-17T04:22:55;101295.41;;;15.91;100.00
66668;BME280;57205;51.438;-2.006;2023-08-17T04:25:21;101296.22;;;15.91;100.00
66668;BME280;57205;51.438;-2.006;2023-08-17T04:27:47;101293.00;;;15.89;100.00
66668;BME280;57205;51.438;-2.006;2023-08-17T04:30:13;101296.56;;;15.85;100.00
66668;BME280;57205;51.438;-2.006;2023-08-17T04:32:38;101289.00;;;15.82;100.00
66668;BME280;57205;51.438;-2.006;2023-08-17T04:35:04;101295.50;;;15.81;100.00
66668;BME280;57205;51.438;-2.006;2023-08-17T04:37:30;101300.03;;;15.85;100.00
66668;BME280;57205;51.438;-2.006;2023-08-17T04:39:55;101299.53;;;15.83;100.00
66668;BME280;57205;51.438;-2.006;2023-08-17T04:42:23;101304.13;;;15.83;100.00
66668;BME280;57205;51.438;-2.006;2023-08-17T04:44:50;101313.28;;;15.87;100.00
66668;BME280;57205;51.438;-2.006;2023-08-17T04:47:15;101309.72;;;15.91;100.00
66668;BME280;57205;51.438;-2.006;2023-08-17T04:49:40;101309.66;;;15.96;100.00
66668;BME280;57205;51.438;-2.006;2023-08-17T04:52:06;101318.28;;;15.98;100.00
66668;BME280;57205;51.438;-2.006;2023-08-17T04:54:31;101314.00;;;15.97;100.00
66668;BME280;57205;51.438;-2.006;2023-08-17T04:56:56;101313.19;;;15.97;100.00
66668;BME280;57205;51.438;-2.006;2023-08-17T04:59:22;101315.03;;;16.01;100.00
66668;BME280;57205;51.438;-2.006;2023-08-17T05:01:47;101320.16;;;16.03;100.00
66668;BME280;57205;51.438;-2.006;2023-08-17T05:04:13;101321.75;;;16.04;100.00
66668;BME280;57205;51.438;-2.006;2023-08-17T05:06:38;101312.34;;;16.01;100.00
66668;BME280;57205;51.438;-2.006;2023-08-17T05:09:04;101312.88;;;15.98;100.00
66668;BME280;57205;51.438;-2.006;2023-08-17T05:11:30;101322.03;;;16.02;100.00
66668;BME280;57205;51.438;-2.006;2023-08-17T05:13:55;101313.94;;;16.02;100.00
66668;BME280;57205;51.438;-2.006;2023-08-17T05:16:22;101314.47;;;16.04;100.00
66668;BME280;57205;51.438;-2.006;2023-08-17T05:18:48;101312.09;;;15.98;100.00
66668;BME280;57205;51.438;-2.006;2023-08-17T05:21:13;101314.53;;;15.94;100.00
66668;BME280;57205;51.438;-2.006;2023-08-17T05:23:39;101299.44;;;15.93;100.00
66668;BME280;57205;51.438;-2.006;2023-08-17T05:26:04;101307.53;;;15.93;100.00
66668;BME280;57205;51.438;-2.006;2023-08-17T05:28:30;101305.38;;;15.95;100.00
66668;BME280;57205;51.438;-2.006;2023-08-17T05:30:55;101302.97;;;15.94;100.00
66668;BME280;57205;51.438;-2.006;2023-08-17T05:33:20;101310.78;;;15.95;100.00
66668;BME280;57205;51.438;-2.006;2023-08-17T05:35:54;101305.31;;;16.00;100.00
66668;BME280;57205;51.438;-2.006;2023-08-17T05:38:19;101304.78;;;16.03;100.00
66668;BME280;57205;51.438;-2.006;2023-08-17T05:40:45;101301.69;;;16.15;100.00
66668;BME280;57205;51.438;-2.006;2023-08-17T05:43:10;101298.94;;;16.20;100.00
66668;BME280;57205;51.438;-2.006;2023-08-17T05:45:35;101307.22;;;16.28;100.00
66668;BME280;57205;51.438;-2.006;2023-08-17T05:48:02;101306.09;;;16.34;100.00
66668;BME280;57205;51.438;-2.006;2023-08-17T05:50:33;101301.16;;;16.41;100.00
66668;BME280;57205;51.438;-2.006;2023-08-17T05:53:01;101308.97;;;16.43;100.00
66668;BME280;57205;51.438;-2.006;2023-08-17T05:55:26;101315.19;;;16.43;100.00
66668;BME280;57205;51.438;-2.006;2023-08-17T05:57:51;101300.03;;;16.47;100.00
66668;BME280;57205;51.438;-2.006;2023-08-17T06:00:17;101300.81;;;16.53;100.00
66668;BME280;57205;51.438;-2.006;2023-08-17T06:02:43;101297.75;;;16.59;100.00
66668;BME280;57205;51.438;-2.006;2023-08-17T06:05:08;101297.13;;;16.68;100.00
66668;BME280;57205;51.438;-2.006;2023-08-17T06:07:34;101306.78;;;16.74;100.00
66668;BME280;57205;51.438;-2.006;2023-08-17T06:09:59;101290.38;;;16.89;100.00
66668;BME280;57205;51.438;-2.006;2023-08-17T06:12:25;101283.09;;;17.08;100.00
66668;BME280;57205;51.438;-2.006;2023-08-17T06:14:51;101284.28;;;17.20;100.00
66668;BME280;57205;51.438;-2.006;2023-08-17T06:17:18;101282.25;;;17.31;100.00
66668;BME280;57205;51.438;-2.006;2023-08-17T06:19:43;101277.38;;;17.51;100.00
66668;BME280;57205;51.438;-2.006;2023-08-17T06:22:08;101271.06;;;17.56;100.00
66668;BME280;57205;51.438;-2.006;2023-08-17T06:24:36;101271.56;;;17.58;100.00
66668;BME280;57205;51.438;-2.006;2023-08-17T06:27:01;101277.84;;;17.72;100.00
66668;BME280;57205;51.438;-2.006;2023-08-17T06:29:27;101280.56;;;17.72;100.00
66668;BME280;57205;51.438;-2.006;2023-08-17T06:31:54;101276.66;;;17.78;100.00
66668;BME280;57205;51.438;-2.006;2023-08-17T06:34:24;101279.31;;;17.97;100.00
66668;BME280;57205;51.438;-2.006;2023-08-17T06:36:59;101275.25;;;18.13;100.00
66668;BME280;57205;51.438;-2.006;2023-08-17T06:39:27;101273.66;;;18.25;100.00
66668;BME280;57205;51.438;-2.006;2023-08-17T06:41:53;101271.63;;;18.49;100.00
66668;BME280;57205;51.438;-2.006;2023-08-17T06:44:18;101268.00;;;18.68;100.00
66668;BME280;57205;51.438;-2.006;2023-08-17T06:46:44;101262.19;;;18.74;100.00
66668;BME280;57205;51.438;-2.006;2023-08-17T06:49:11;101262.47;;;18.86;100.00
66668;BME280;57205;51.438;-2.006;2023-08-17T06:51:36;101264.16;;;18.96;100.00
66668;BME280;57205;51.438;-2.006;2023-08-17T06:54:07;101260.81;;;19.12;100.00
66668;BME280;57205;51.438;-2.006;2023-08-17T06:56:34;101255.22;;;19.31;100.00
66668;BME280;57205;51.438;-2.006;2023-08-17T06:58:59;101253.50;;;19.71;100.00
66668;BME280;57205;51.438;-2.006;2023-08-17T07:01:26;101240.13;;;20.27;100.00
66668;BME280;57205;51.438;-2.006;2023-08-17T07:03:51;101244.91;;;20.78;100.00
66668;BME280;57205;51.438;-2.006;2023-08-17T07:06:19;101233.78;;;21.22;100.00
66668;BME280;57205;51.438;-2.006;2023-08-17T07:08:45;101234.72;;;21.69;100.00
66668;BME280;57205;51.438;-2.006;2023-08-17T07:11:11;101232.16;;;21.89;100.00
66668;BME280;57205;51.438;-2.006;2023-08-17T07:13:36;101236.47;;;21.65;100.00
66668;BME280;57205;51.438;-2.006;2023-08-17T07:16:02;101236.50;;;21.73;100.00
66668;BME280;57205;51.438;-2.006;2023-08-17T07:18:27;101226.22;;;21.87;100.00
66668;BME280;57205;51.438;-2.006;2023-08-17T07:20:52;101234.16;;;22.18;100.00
66668;BME280;57205;51.438;-2.006;2023-08-17T07:23:19;101237.19;;;22.63;100.00
66668;BME280;57205;51.438;-2.006;2023-08-17T07:25:44;101240.56;;;22.89;100.00
66668;BME280;57205;51.438;-2.006;2023-08-17T07:28:10;101242.69;;;23.04;100.00
66668;BME280;57205;51.438;-2.006;2023-08-17T07:30:36;101232.69;;;23.28;100.00
66668;BME280;57205;51.438;-2.006;2023-08-17T07:33:02;101232.84;;;22.91;100.00
66668;BME280;57205;51.438;-2.006;2023-08-17T07:35:28;101236.91;;;23.26;100.00
66668;BME280;57205;51.438;-2.006;2023-08-17T07:37:54;101232.00;;;23.40;100.00
66668;BME280;57205;51.438;-2.006;2023-08-17T07:40:19;101229.97;;;23.49;100.00
66668;BME280;57205;51.438;-2.006;2023-08-17T07:42:45;101233.13;;;23.72;100.00
66668;BME280;57205;51.438;-2.006;2023-08-17T07:45:12;101227.91;;;24.11;100.00
66668;BME280;57205;51.438;-2.006;2023-08-17T07:47:37;101228.81;;;24.40;100.00
66668;BME280;57205;51.438;-2.006;2023-08-17T07:50:06;101218.81;;;24.80;100.00
66668;BME280;57205;51.438;-2.006;2023-08-17T07:52:32;101213.50;;;25.11;100.00
66668;BME280;57205;51.438;-2.006;2023-08-17T07:54:59;101216.50;;;24.94;100.00
66668;BME280;57205;51.438;-2.006;2023-08-17T07:57:26;101220.53;;;24.48;100.00
66668;BME280;57205;51.438;-2.006;2023-08-17T07:59:52;101232.03;;;24.54;100.00
66668;BME280;57205;51.438;-2.006;2023-08-17T08:02:20;101225.94;;;23.67;100.00
66668;BME280;57205;51.438;-2.006;2023-08-17T08:04:45;101224.50;;;23.49;100.00
66668;BME280;57205;51.438;-2.006;2023-08-17T08:07:11;101228.06;;;23.50;100.00
66668;BME280;57205;51.438;-2.006;2023-08-17T08:09:36;101210.19;;;23.97;100.00
66668;BME280;57205;51.438;-2.006;2023-08-17T08:12:05;101217.44;;;24.50;100.00
66668;BME280;57205;51.438;-2.006;2023-08-17T08:14:30;101221.53;;;24.68;100.00
66668;BME280;57205;51.438;-2.006;2023-08-17T08:16:56;101215.69;;;25.05;100.00
66668;BME280;57205;51.438;-2.006;2023-08-17T08:19:21;101223.53;;;25.19;100.00
66668;BME280;57205;51.438;-2.006;2023-08-17T08:21:47;101220.91;;;25.50;98.86
66668;BME280;57205;51.438;-2.006;2023-08-17T08:24:12;101221.06;;;25.42;98.32
66668;BME280;57205;51.438;-2.006;2023-08-17T08:26:38;101229.03;;;25.35;99.14
66668;BME280;57205;51.438;-2.006;2023-08-17T08:29:03;101228.34;;;25.93;94.80
66668;BME280;57205;51.438;-2.006;2023-08-17T08:31:30;101222.63;;;25.70;94.12
66668;BME280;57205;51.438;-2.006;2023-08-17T08:33:55;101225.25;;;25.11;98.82
66668;BME280;57205;51.438;-2.006;2023-08-17T08:36:21;101226.19;;;25.03;100.00
66668;BME280;57205;51.438;-2.006;2023-08-17T08:38:47;101223.47;;;24.91;100.00
66668;BME280;57205;51.438;-2.006;2023-08-17T08:41:12;101211.69;;;25.31;98.50
66668;BME280;57205;51.438;-2.006;2023-08-17T08:43:38;101218.84;;;25.90;96.57
66668;BME280;57205;51.438;-2.006;2023-08-17T08:46:05;101218.19;;;26.71;89.56
66668;BME280;57205;51.438;-2.006;2023-08-17T08:48:31;101209.88;;;26.87;86.89
66668;BME280;57205;51.438;-2.006;2023-08-17T08:51:00;101208.91;;;27.14;83.36
66668;BME280;57205;51.438;-2.006;2023-08-17T08:53:37;101218.47;;;27.20;82.42
66668;BME280;57205;51.438;-2.006;2023-08-17T08:56:03;101220.94;;;26.40;87.96
66668;BME280;57205;51.438;-2.006;2023-08-17T08:58:29;101223.44;;;25.86;90.93
66668;BME280;57205;51.438;-2.006;2023-08-17T09:00:57;101214.88;;;25.33;95.44
66668;BME280;57205;51.438;-2.006;2023-08-17T09:03:30;101203.47;;;25.03;98.45
66668;BME280;57205;51.438;-2.006;2023-08-17T09:05:57;101211.78;;;25.06;100.00
66668;BME280;57205;51.438;-2.006;2023-08-17T09:08:27;101199.34;;;25.09;100.00
66668;BME280;57205;51.438;-2.006;2023-08-17T09:11:01;101202.19;;;25.52;97.85
66668;BME280;57205;51.438;-2.006;2023-08-17T09:13:27;101210.88;;;25.70;95.49
66668;BME280;57205;51.438;-2.006;2023-08-17T09:15:53;101204.72;;;25.33;94.74
66668;BME280;57205;51.438;-2.006;2023-08-17T09:18:19;101188.97;;;25.42;95.44
66668;BME280;57205;51.438;-2.006;2023-08-17T09:20:46;101198.50;;;25.76;94.05
66668;BME280;57205;51.438;-2.006;2023-08-17T09:23:14;101206.44;;;25.65;95.28
66668;BME280;57205;51.438;-2.006;2023-08-17T09:25:41;101198.22;;;25.65;93.12
66668;BME280;57205;51.438;-2.006;2023-08-17T09:28:11;101200.50;;;25.36;94.16
66668;BME280;57205;51.438;-2.006;2023-08-17T09:30:53;101193.00;;;24.93;97.73
66668;BME280;57205;51.438;-2.006;2023-08-17T09:33:23;101192.59;;;24.43;100.00
66668;BME280;57205;51.438;-2.006;2023-08-17T09:35:49;101181.88;;;24.26;100.00
66668;BME280;57205;51.438;-2.006;2023-08-17T09:38:16;101184.03;;;24.08;100.00
66668;BME280;57205;51.438;-2.006;2023-08-17T09:40:42;101188.13;;;24.38;100.00
66668;BME280;57205;51.438;-2.006;2023-08-17T09:43:08;101182.72;;;25.02;99.66
66668;BME280;57205;51.438;-2.006;2023-08-17T09:45:35;101189.19;;;25.37;94.78
66668;BME280;57205;51.438;-2.006;2023-08-17T09:48:07;101188.97;;;25.42;95.39
66668;BME280;57205;51.438;-2.006;2023-08-17T09:50:33;101175.34;;;25.46;92.93
66668;BME280;57205;51.438;-2.006;2023-08-17T09:52:59;101177.78;;;25.47;92.71
66668;BME280;57205;51.438;-2.006;2023-08-17T09:55:24;101174.06;;;25.55;92.49
66668;BME280;57205;51.438;-2.006;2023-08-17T09:57:50;101173.16;;;25.51;91.79
66668;BME280;57205;51.438;-2.006;2023-08-17T10:00:18;101172.31;;;25.35;94.51
66668;BME280;57205;51.438;-2.006;2023-08-17T10:02:49;101165.38;;;25.53;90.99
66668;BME280;57205;51.438;-2.006;2023-08-17T10:05:21;101164.41;;;25.46;88.97
66668;BME280;57205;51.438;-2.006;2023-08-17T10:07:57;101167.94;;;25.19;90.38
66668;BME280;57205;51.438;-2.006;2023-08-17T10:10:27;101160.69;;;24.98;94.66
66668;BME280;57205;51.438;-2.006;2023-08-17T10:13:01;101163.88;;;25.00;95.72
66668;BME280;57205;51.438;-2.006;2023-08-17T10:15:33;101172.59;;;24.66;96.72
66668;BME280;57205;51.438;-2.006;2023-08-17T10:18:29;101165.88;;;24.64;96.41
66668;BME280;57205;51.438;-2.006;2023-08-17T10:21:07;101162.69;;;24.74;98.70
66668;BME280;57205;51.438;-2.006;2023-08-17T10:23:41;101168.97;;;24.62;99.94
66668;BME280;57205;51.438;-2.006;2023-08-17T10:26:09;101174.88;;;24.64;99.62
66668;BME280;57205;51.438;-2.006;2023-08-17T10:28:35;101159.84;;;24.70;99.28
66668;BME280;57205;51.438;-2.006;2023-08-17T10:31:00;101152.22;;;24.76;98.19
66668;BME280;57205;51.438;-2.006;2023-08-17T10:33:28;101155.84;;;24.80;98.01
66668;BME280;57205;51.438;-2.006;2023-08-17T10:35:55;101155.53;;;25.09;96.40
66668;BME280;57205;51.438;-2.006;2023-08-17T10:38:21;101151.66;;;25.10;94.25
66668;BME280;57205;51.438;-2.006;2023-08-17T10:43:35;101149.66;;;25.23;93.67
66668;BME280;57205;51.438;-2.006;2023-08-17T10:46:18;101157.50;;;25.24;93.18
66668;BME280;57205;51.438;-2.006;2023-08-17T10:48:44;101138.72;;;25.10;94.45
66668;BME280;57205;51.438;-2.006;2023-08-17T10:51:09;101140.56;;;25.06;94.68
66668;BME280;57205;51.438;-2.006;2023-08-17T10:53:40;101130.97;;;25.12;94.07
66668;BME280;57205;51.438;-2.006;2023-08-17T10:56:13;101135.78;;;25.31;93.72
66668;BME280;57205;51.438;-2.006;2023-08-17T10:58:39;101144.91;;;25.35;93.53
66668;BME280;57205;51.438;-2.006;2023-08-17T11:01:06;101139.72;;;25.18;94.16
66668;BME280;57205;51.438;-2.006;2023-08-17T11:03:32;101136.91;;;25.42;94.73
66668;BME280;57205;51.438;-2.006;2023-08-17T11:06:14;101138.59;;;25.47;92.71
66668;BME280;57205;51.438;-2.006;2023-08-17T11:08:56;101148.53;;;25.67;90.52
66668;BME280;57205;51.438;-2.006;2023-08-17T11:11:22;101141.16;;;25.55;90.83
66668;BME280;57205;51.438;-2.006;2023-08-17T11:13:52;101141.72;;;25.33;92.03
66668;BME280;57205;51.438;-2.006;2023-08-17T11:16:17;101140.56;;;25.06;93.75
66668;BME280;57205;51.438;-2.006;2023-08-17T11:18:47;101148.75;;;24.91;96.13
66668;BME280;57205;51.438;-2.006;2023-08-17T11:21:14;101139.69;;;25.02;94.44
66668;BME280;57205;51.438;-2.006;2023-08-17T11:23:42;101150.75;;;25.06;94.25
66668;BME280;57205;51.438;-2.006;2023-08-17T11:26:08;101144.38;;;25.02;94.04
66668;BME280;57205;51.438;-2.006;2023-08-17T11:28:35;101143.88;;;25.12;95.07
66668;BME280;57205;51.438;-2.006;2023-08-17T11:31:09;101147.41;;;25.12;94.33
66668;BME280;57205;51.438;-2.006;2023-08-17T11:33:35;101136.50;;;25.28;91.25
66668;BME280;57205;51.438;-2.006;2023-08-17T11:36:04;101136.59;;;25.32;91.27
66668;BME280;57205;51.438;-2.006;2023-08-17T11:38:35;101133.22;;;25.50;89.58
66668;BME280;57205;51.438;-2.006;2023-08-17T11:41:02;101130.91;;;25.52;89.57
66668;BME280;57205;51.438;-2.006;2023-08-17T11:43:28;101131.19;;;25.47;89.08
66668;BME280;57205;51.438;-2.006;2023-08-17T11:45:55;101138.06;;;25.29;88.70
66668;BME280;57205;51.438;-2.006;2023-08-17T11:48:21;101135.59;;;25.24;89.21
66668;BME280;57205;51.438;-2.006;2023-08-17T11:50:48;101125.75;;;25.07;90.75
66668;BME280;57205;51.438;-2.006;2023-08-17T11:53:14;101134.13;;;24.99;90.95
66668;BME280;57205;51.438;-2.006;2023-08-17T11:55:39;101125.03;;;24.83;91.63
66668;BME280;57205;51.438;-2.006;2023-08-17T11:58:05;101130.75;;;24.66;93.34
66668;BME280;57205;51.438;-2.006;2023-08-17T12:00:35;101123.94;;;24.72;94.77
66668;BME280;57205;51.438;-2.006;2023-08-17T12:03:04;101118.97;;;24.89;92.85
66668;BME280;57205;51.438;-2.006;2023-08-17T12:05:30;101128.88;;;24.94;89.57
66668;BME280;57205;51.438;-2.006;2023-08-17T12:07:59;101129.31;;;24.96;90.18
66668;BME280;57205;51.438;-2.006;2023-08-17T12:10:30;101128.19;;;24.97;89.09
66668;BME280;57205;51.438;-2.006;2023-08-17T12:12:58;101125.69;;;24.92;84.89
66668;BME280;57205;51.438;-2.006;2023-08-17T12:15:36;101115.19;;;24.94;85.32
66668;BME280;57205;51.438;-2.006;2023-08-17T12:18:04;101117.47;;;24.92;86.98
66668;BME280;57205;51.438;-2.006;2023-08-17T12:20:30;101123.81;;;24.80;88.54
66668;BME280;57205;51.438;-2.006;2023-08-17T12:22:57;101129.41;;;24.72;90.91
66668;BME280;57205;51.438;-2.006;2023-08-17T12:25:25;101120.25;;;24.68;93.31
66668;BME280;57205;51.438;-2.006;2023-08-17T12:27:52;101112.53;;;24.58;94.62
66668;BME280;57205;51.438;-2.006;2023-08-17T12:30:26;101120.97;;;24.53;93.58
66668;BME280;57205;51.438;-2.006;2023-08-17T12:32:54;101110.47;;;24.55;95.31
66668;BME280;57205;51.438;-2.006;2023-08-17T12:35:20;101115.03;;;24.75;95.09
66668;BME280;57205;51.438;-2.006;2023-08-17T12:37:48;101100.53;;;24.74;93.47